sensor_id;sensor_type;location;lat;lon;timestamp;P1;durP1;ratioP1;P2;durP2;ratioP2
20014;SDS011;61787;42.022;23.078;2023-04-15T00:00:12;3.73;;;2.43;;
20014;SDS011;61787;42.022;23.078;2023-04-15T00:01:14;4.50;;;2.97;;
20014;SDS011;61787;42.022;23.078;2023-04-15T00:02:20;4.87;;;2.50;;
20014;SDS011;61787;42.022;23.078;2023-04-15T00:03:21;4.47;;;3.30;;
20014;SDS011;61787;42.022;23.078;2023-04-15T00:04:24;3.97;;;2.93;;
20014;SDS011;61787;42.022;23.078;2023-04-15T00:05:26;6.97;;;3.80;;
20014;SDS011;61787;42.022;23.078;2023-04-15T00:06:27;5.40;;;3.40;;
20014;SDS011;61787;42.022;23.078;2023-04-15T00:07:29;4.83;;;3.20;;
20014;SDS011;61787;42.022;23.078;2023-04-15T00:08:31;3.20;;;2.90;;
20014;SDS011;61787;42.022;23.078;2023-04-15T00:09:33;3.90;;;3.27;;
20014;SDS011;61787;42.022;23.078;2023-04-15T00:10:35;5.97;;;3.83;;
20014;SDS011;61787;42.022;23.078;2023-04-15T00:11:37;5.60;;;3.70;;
20014;SDS011;61787;42.022;23.078;2023-04-15T00:12:38;3.87;;;3.47;;
20014;SDS011;61787;42.022;23.078;2023-04-15T00:13:40;6.60;;;3.60;;
20014;SDS011;61787;42.022;23.078;2023-04-15T00:14:42;5.03;;;3.27;;
20014;SDS011;61787;42.022;23.078;2023-04-15T00:15:43;4.50;;;3.43;;
20014;SDS011;61787;42.022;23.078;2023-04-15T00:16:45;6.17;;;3.27;;
20014;SDS011;61787;42.022;23.078;2023-04-15T00:17:48;5.80;;;3.17;;
20014;SDS011;61787;42.022;23.078;2023-04-15T00:18:52;4.50;;;3.20;;
20014;SDS011;61787;42.022;23.078;2023-04-15T00:19:53;7.60;;;3.57;;
20014;SDS011;61787;42.022;23.078;2023-04-15T00:20:55;6.07;;;3.40;;
20014;SDS011;61787;42.022;23.078;2023-04-15T00:21:56;4.07;;;3.10;;
20014;SDS011;61787;42.022;23.078;2023-04-15T00:22:58;4.10;;;2.90;;
20014;SDS011;61787;42.022;23.078;2023-04-15T00:24:00;3.30;;;2.97;;
20014;SDS011;61787;42.022;23.078;2023-04-15T00:25:02;4.70;;;2.57;;
20014;SDS011;61787;42.022;23.078;2023-04-15T00:26:04;4.47;;;2.80;;
20014;SDS011;61787;42.022;23.078;2023-04-15T00:27:05;4.23;;;2.50;;
20014;SDS011;61787;42.022;23.078;2023-04-15T00:28:07;3.97;;;3.03;;
20014;SDS011;61787;42.022;23.078;2023-04-15T00:29:09;3.47;;;2.83;;
20014;SDS011;61787;42.022;23.078;2023-04-15T00:30:11;4.63;;;3.03;;
20014;SDS011;61787;42.022;23.078;2023-04-15T00:31:13;5.60;;;3.07;;
20014;SDS011;61787;42.022;23.078;2023-04-15T00:32:15;3.80;;;2.70;;
20014;SDS011;61787;42.022;23.078;2023-04-15T00:33:17;3.67;;;2.70;;
20014;SDS011;61787;42.022;23.078;2023-04-15T00:34:18;5.73;;;3.00;;
20014;SDS011;61787;42.022;23.078;2023-04-15T00:35:20;6.47;;;3.43;;
20014;SDS011;61787;42.022;23.078;2023-04-15T00:36:22;3.73;;;2.73;;
20014;SDS011;61787;42.022;23.078;2023-04-15T00:37:23;4.13;;;2.70;;
20014;SDS011;61787;42.022;23.078;2023-04-15T00:38:25;3.87;;;2.90;;
20014;SDS011;61787;42.022;23.078;2023-04-15T00:39:26;6.60;;;2.70;;
20014;SDS011;61787;42.022;23.078;2023-04-15T00:40:28;4.50;;;3.13;;
20014;SDS011;61787;42.022;23.078;2023-04-15T00:41:30;3.90;;;3.03;;
20014;SDS011;61787;42.022;23.078;2023-04-15T00:42:33;4.60;;;2.67;;
20014;SDS011;61787;42.022;23.078;2023-04-15T00:43:35;4.07;;;3.37;;
20014;SDS011;61787;42.022;23.078;2023-04-15T00:44:36;4.13;;;3.27;;
20014;SDS011;61787;42.022;23.078;2023-04-15T00:45:38;5.00;;;3.70;;
20014;SDS011;61787;42.022;23.078;2023-04-15T00:46:39;3.97;;;3.20;;
20014;SDS011;61787;42.022;23.078;2023-04-15T00:47:43;4.60;;;3.57;;
20014;SDS011;61787;42.022;23.078;2023-04-15T00:48:46;5.10;;;3.73;;
20014;SDS011;61787;42.022;23.078;2023-04-15T00:49:47;4.27;;;3.77;;
20014;SDS011;61787;42.022;23.078;2023-04-15T00:50:49;5.37;;;3.47;;
20014;SDS011;61787;42.022;23.078;2023-04-15T00:51:51;5.13;;;3.43;;
20014;SDS011;61787;42.022;23.078;2023-04-15T00:52:52;6.00;;;3.57;;
20014;SDS011;61787;42.022;23.078;2023-04-15T00:53:54;4.90;;;3.30;;
20014;SDS011;61787;42.022;23.078;2023-04-15T00:54:55;5.20;;;3.77;;
20014;SDS011;61787;42.022;23.078;2023-04-15T00:55:57;6.13;;;3.90;;
20014;SDS011;61787;42.022;23.078;2023-04-15T00:56:59;7.53;;;4.00;;
20014;SDS011;61787;42.022;23.078;2023-04-15T00:58:02;5.67;;;3.33;;
20014;SDS011;61787;42.022;23.078;2023-04-15T00:59:04;3.60;;;3.30;;
20014;SDS011;61787;42.022;23.078;2023-04-15T01:00:09;6.37;;;3.70;;
20014;SDS011;61787;42.022;23.078;2023-04-15T01:01:12;5.63;;;3.83;;
20014;SDS011;61787;42.022;23.078;2023-04-15T01:02:13;5.30;;;3.70;;
20014;SDS011;61787;42.022;23.078;2023-04-15T01:03:15;5.50;;;3.77;;
20014;SDS011;61787;42.022;23.078;2023-04-15T01:04:17;6.23;;;3.77;;
20014;SDS011;61787;42.022;23.078;2023-04-15T01:05:19;4.10;;;3.60;;
20014;SDS011;61787;42.022;23.078;2023-04-15T01:06:20;6.63;;;4.10;;
20014;SDS011;61787;42.022;23.078;2023-04-15T01:07:22;3.87;;;3.27;;
20014;SDS011;61787;42.022;23.078;2023-04-15T01:08:27;4.67;;;3.73;;
20014;SDS011;61787;42.022;23.078;2023-04-15T01:09:29;3.67;;;3.33;;
20014;SDS011;61787;42.022;23.078;2023-04-15T01:10:31;6.93;;;4.03;;
20014;SDS011;61787;42.022;23.078;2023-04-15T01:11:33;9.23;;;3.80;;
20014;SDS011;61787;42.022;23.078;2023-04-15T01:12:35;4.87;;;4.13;;
20014;SDS011;61787;42.022;23.078;2023-04-15T01:13:38;7.03;;;3.93;;
20014;SDS011;61787;42.022;23.078;2023-04-15T01:14:40;6.67;;;4.33;;
20014;SDS011;61787;42.022;23.078;2023-04-15T01:15:42;5.90;;;3.90;;
20014;SDS011;61787;42.022;23.078;2023-04-15T01:16:44;6.53;;;3.83;;
20014;SDS011;61787;42.022;23.078;2023-04-15T01:17:47;7.97;;;3.90;;
20014;SDS011;61787;42.022;23.078;2023-04-15T01:18:49;7.67;;;3.83;;
20014;SDS011;61787;42.022;23.078;2023-04-15T01:19:50;4.77;;;3.80;;
20014;SDS011;61787;42.022;23.078;2023-04-15T01:20:52;4.37;;;3.80;;
20014;SDS011;61787;42.022;23.078;2023-04-15T01:21:54;7.60;;;4.47;;
20014;SDS011;61787;42.022;23.078;2023-04-15T01:22:56;6.97;;;4.20;;
20014;SDS011;61787;42.022;23.078;2023-04-15T01:23:59;7.27;;;4.23;;
20014;SDS011;61787;42.022;23.078;2023-04-15T01:25:05;5.97;;;4.63;;
20014;SDS011;61787;42.022;23.078;2023-04-15T01:26:10;5.93;;;4.20;;
20014;SDS011;61787;42.022;23.078;2023-04-15T01:27:12;6.07;;;4.53;;
20014;SDS011;61787;42.022;23.078;2023-04-15T01:28:14;6.87;;;4.73;;
20014;SDS011;61787;42.022;23.078;2023-04-15T01:29:16;7.13;;;4.60;;
20014;SDS011;61787;42.022;23.078;2023-04-15T01:30:18;6.80;;;4.70;;
20014;SDS011;61787;42.022;23.078;2023-04-15T01:31:20;7.90;;;5.17;;
20014;SDS011;61787;42.022;23.078;2023-04-15T01:32:22;7.13;;;4.97;;
20014;SDS011;61787;42.022;23.078;2023-04-15T01:33:24;7.37;;;4.60;;
20014;SDS011;61787;42.022;23.078;2023-04-15T01:34:26;6.70;;;4.90;;
20014;SDS011;61787;42.022;23.078;2023-04-15T01:35:30;5.77;;;4.90;;
20014;SDS011;61787;42.022;23.078;2023-04-15T01:36:32;7.60;;;5.03;;
20014;SDS011;61787;42.022;23.078;2023-04-15T01:37:34;5.60;;;4.40;;
20014;SDS011;61787;42.022;23.078;2023-04-15T01:38:37;7.80;;;5.30;;
20014;SDS011;61787;42.022;23.078;2023-04-15T01:39:38;5.33;;;4.63;;
20014;SDS011;61787;42.022;23.078;2023-04-15T01:40:40;6.07;;;4.40;;
20014;SDS011;61787;42.022;23.078;2023-04-15T01:41:42;5.30;;;3.73;;
20014;SDS011;61787;42.022;23.078;2023-04-15T01:42:44;7.90;;;4.17;;
20014;SDS011;61787;42.022;23.078;2023-04-15T01:43:45;7.10;;;4.70;;
20014;SDS011;61787;42.022;23.078;2023-04-15T01:44:47;6.40;;;4.17;;
20014;SDS011;61787;42.022;23.078;2023-04-15T01:45:48;8.03;;;4.50;;
20014;SDS011;61787;42.022;23.078;2023-04-15T01:46:50;6.00;;;4.40;;
20014;SDS011;61787;42.022;23.078;2023-04-15T01:47:52;5.47;;;3.90;;
20014;SDS011;61787;42.022;23.078;2023-04-15T01:48:54;8.50;;;4.00;;
20014;SDS011;61787;42.022;23.078;2023-04-15T01:49:56;5.50;;;4.20;;
20014;SDS011;61787;42.022;23.078;2023-04-15T01:50:58;7.60;;;4.83;;
20014;SDS011;61787;42.022;23.078;2023-04-15T01:51:59;9.90;;;5.27;;
20014;SDS011;61787;42.022;23.078;2023-04-15T01:53:01;5.67;;;4.90;;
20014;SDS011;61787;42.022;23.078;2023-04-15T01:54:03;8.50;;;5.80;;
20014;SDS011;61787;42.022;23.078;2023-04-15T01:55:04;6.77;;;5.20;;
20014;SDS011;61787;42.022;23.078;2023-04-15T01:56:08;8.07;;;5.70;;
20014;SDS011;61787;42.022;23.078;2023-04-15T01:57:09;7.90;;;5.50;;
20014;SDS011;61787;42.022;23.078;2023-04-15T01:58:11;6.70;;;5.43;;
20014;SDS011;61787;42.022;23.078;2023-04-15T01:59:12;6.57;;;5.50;;
20014;SDS011;61787;42.022;23.078;2023-04-15T02:00:14;6.40;;;5.10;;
20014;SDS011;61787;42.022;23.078;2023-04-15T02:01:16;8.63;;;5.70;;
20014;SDS011;61787;42.022;23.078;2023-04-15T02:02:20;12.63;;;5.37;;
20014;SDS011;61787;42.022;23.078;2023-04-15T02:03:23;8.47;;;4.90;;
20014;SDS011;61787;42.022;23.078;2023-04-15T02:04:25;7.23;;;5.23;;
20014;SDS011;61787;42.022;23.078;2023-04-15T02:05:28;6.67;;;5.10;;
20014;SDS011;61787;42.022;23.078;2023-04-15T02:06:29;7.77;;;5.03;;
20014;SDS011;61787;42.022;23.078;2023-04-15T02:07:31;7.10;;;5.33;;
20014;SDS011;61787;42.022;23.078;2023-04-15T02:08:33;7.03;;;4.90;;
20014;SDS011;61787;42.022;23.078;2023-04-15T02:09:35;6.93;;;5.27;;
20014;SDS011;61787;42.022;23.078;2023-04-15T02:10:36;7.27;;;5.10;;
20014;SDS011;61787;42.022;23.078;2023-04-15T02:11:38;6.53;;;4.73;;
20014;SDS011;61787;42.022;23.078;2023-04-15T02:12:40;6.10;;;4.87;;
20014;SDS011;61787;42.022;23.078;2023-04-15T02:13:42;7.30;;;5.00;;
20014;SDS011;61787;42.022;23.078;2023-04-15T02:14:43;6.70;;;5.10;;
20014;SDS011;61787;42.022;23.078;2023-04-15T02:15:48;8.83;;;5.37;;
20014;SDS011;61787;42.022;23.078;2023-04-15T02:16:50;5.90;;;4.90;;
20014;SDS011;61787;42.022;23.078;2023-04-15T02:17:52;5.60;;;4.10;;
20014;SDS011;61787;42.022;23.078;2023-04-15T02:18:55;6.97;;;4.67;;
20014;SDS011;61787;42.022;23.078;2023-04-15T02:19:57;5.43;;;4.40;;
20014;SDS011;61787;42.022;23.078;2023-04-15T02:20:59;6.97;;;4.80;;
20014;SDS011;61787;42.022;23.078;2023-04-15T02:22:01;8.20;;;4.53;;
20014;SDS011;61787;42.022;23.078;2023-04-15T02:23:02;7.23;;;4.47;;
20014;SDS011;61787;42.022;23.078;2023-04-15T02:24:07;6.17;;;4.50;;
20014;SDS011;61787;42.022;23.078;2023-04-15T02:25:09;5.77;;;4.33;;
20014;SDS011;61787;42.022;23.078;2023-04-15T02:26:11;9.53;;;4.90;;
20014;SDS011;61787;42.022;23.078;2023-04-15T02:27:16;8.40;;;5.10;;
20014;SDS011;61787;42.022;23.078;2023-04-15T02:28:18;6.93;;;4.77;;
20014;SDS011;61787;42.022;23.078;2023-04-15T02:29:20;6.60;;;5.00;;
20014;SDS011;61787;42.022;23.078;2023-04-15T02:30:23;10.13;;;5.27;;
20014;SDS011;61787;42.022;23.078;2023-04-15T02:31:26;7.07;;;5.40;;
20014;SDS011;61787;42.022;23.078;2023-04-15T02:32:27;8.93;;;6.03;;
20014;SDS011;61787;42.022;23.078;2023-04-15T02:33:29;11.83;;;6.30;;
20014;SDS011;61787;42.022;23.078;2023-04-15T02:34:32;7.27;;;5.90;;
20014;SDS011;61787;42.022;23.078;2023-04-15T02:35:34;9.50;;;5.70;;
20014;SDS011;61787;42.022;23.078;2023-04-15T02:36:36;8.90;;;5.40;;
20014;SDS011;61787;42.022;23.078;2023-04-15T02:37:39;5.63;;;5.03;;
20014;SDS011;61787;42.022;23.078;2023-04-15T02:38:44;7.10;;;5.77;;
20014;SDS011;61787;42.022;23.078;2023-04-15T02:39:46;8.07;;;5.87;;
20014;SDS011;61787;42.022;23.078;2023-04-15T02:40:47;7.80;;;5.07;;
20014;SDS011;61787;42.022;23.078;2023-04-15T02:41:50;7.33;;;5.37;;
20014;SDS011;61787;42.022;23.078;2023-04-15T02:42:52;7.10;;;5.50;;
20014;SDS011;61787;42.022;23.078;2023-04-15T02:43:54;6.87;;;5.57;;
20014;SDS011;61787;42.022;23.078;2023-04-15T02:44:56;10.10;;;6.03;;
20014;SDS011;61787;42.022;23.078;2023-04-15T02:45:58;6.93;;;5.67;;
20014;SDS011;61787;42.022;23.078;2023-04-15T02:47:00;6.77;;;5.67;;
20014;SDS011;61787;42.022;23.078;2023-04-15T02:48:01;10.50;;;6.37;;
20014;SDS011;61787;42.022;23.078;2023-04-15T02:49:06;10.87;;;6.43;;
20014;SDS011;61787;42.022;23.078;2023-04-15T02:50:09;12.23;;;6.17;;
20014;SDS011;61787;42.022;23.078;2023-04-15T02:51:17;8.57;;;6.37;;
20014;SDS011;61787;42.022;23.078;2023-04-15T02:52:20;8.30;;;6.50;;
20014;SDS011;61787;42.022;23.078;2023-04-15T02:53:21;8.47;;;6.40;;
20014;SDS011;61787;42.022;23.078;2023-04-15T02:54:23;14.10;;;7.30;;
20014;SDS011;61787;42.022;23.078;2023-04-15T02:55:25;10.93;;;6.87;;
20014;SDS011;61787;42.022;23.078;2023-04-15T02:56:27;9.60;;;6.87;;
20014;SDS011;61787;42.022;23.078;2023-04-15T02:57:28;8.97;;;7.03;;
20014;SDS011;61787;42.022;23.078;2023-04-15T02:58:30;8.90;;;6.70;;
20014;SDS011;61787;42.022;23.078;2023-04-15T02:59:31;10.43;;;7.27;;
20014;SDS011;61787;42.022;23.078;2023-04-15T03:00:33;9.23;;;7.10;;
20014;SDS011;61787;42.022;23.078;2023-04-15T03:01:35;12.17;;;7.40;;
20014;SDS011;61787;42.022;23.078;2023-04-15T03:02:37;10.53;;;7.70;;
20014;SDS011;61787;42.022;23.078;2023-04-15T03:03:40;7.93;;;6.97;;
20014;SDS011;61787;42.022;23.078;2023-04-15T03:04:42;13.57;;;7.37;;
20014;SDS011;61787;42.022;23.078;2023-04-15T03:05:43;11.23;;;7.37;;
20014;SDS011;61787;42.022;23.078;2023-04-15T03:06:45;9.40;;;7.00;;
20014;SDS011;61787;42.022;23.078;2023-04-15T03:07:46;8.57;;;6.57;;
20014;SDS011;61787;42.022;23.078;2023-04-15T03:08:48;8.07;;;6.27;;
20014;SDS011;61787;42.022;23.078;2023-04-15T03:09:49;10.40;;;6.97;;
20014;SDS011;61787;42.022;23.078;2023-04-15T03:10:51;9.43;;;6.10;;
20014;SDS011;61787;42.022;23.078;2023-04-15T03:11:53;9.47;;;6.40;;
20014;SDS011;61787;42.022;23.078;2023-04-15T03:12:55;7.93;;;5.90;;
20014;SDS011;61787;42.022;23.078;2023-04-15T03:13:57;8.67;;;6.10;;
20014;SDS011;61787;42.022;23.078;2023-04-15T03:14:58;7.00;;;5.27;;
20014;SDS011;61787;42.022;23.078;2023-04-15T03:16:02;6.70;;;5.53;;
20014;SDS011;61787;42.022;23.078;2023-04-15T03:17:03;8.97;;;5.93;;
20014;SDS011;61787;42.022;23.078;2023-04-15T03:18:05;5.13;;;4.50;;
20014;SDS011;61787;42.022;23.078;2023-04-15T03:19:07;6.13;;;5.07;;
20014;SDS011;61787;42.022;23.078;2023-04-15T03:20:08;7.00;;;4.93;;
20014;SDS011;61787;42.022;23.078;2023-04-15T03:21:10;8.37;;;5.40;;
20014;SDS011;61787;42.022;23.078;2023-04-15T03:22:12;6.70;;;5.37;;
20014;SDS011;61787;42.022;23.078;2023-04-15T03:23:13;7.53;;;5.30;;
20014;SDS011;61787;42.022;23.078;2023-04-15T03:24:15;8.40;;;5.27;;
20014;SDS011;61787;42.022;23.078;2023-04-15T03:25:17;5.77;;;5.17;;
20014;SDS011;61787;42.022;23.078;2023-04-15T03:26:28;7.37;;;5.70;;
20014;SDS011;61787;42.022;23.078;2023-04-15T03:27:30;7.87;;;5.47;;
20014;SDS011;61787;42.022;23.078;2023-04-15T03:28:32;9.27;;;5.67;;
20014;SDS011;61787;42.022;23.078;2023-04-15T03:29:34;9.33;;;5.97;;
20014;SDS011;61787;42.022;23.078;2023-04-15T03:30:35;8.87;;;5.70;;
20014;SDS011;61787;42.022;23.078;2023-04-15T03:31:37;11.27;;;5.73;;
20014;SDS011;61787;42.022;23.078;2023-04-15T03:32:39;6.73;;;5.63;;
20014;SDS011;61787;42.022;23.078;2023-04-15T03:33:40;5.80;;;5.20;;
20014;SDS011;61787;42.022;23.078;2023-04-15T03:34:42;6.93;;;5.43;;
20014;SDS011;61787;42.022;23.078;2023-04-15T03:35:44;9.53;;;5.80;;
20014;SDS011;61787;42.022;23.078;2023-04-15T03:36:46;7.13;;;5.90;;
20014;SDS011;61787;42.022;23.078;2023-04-15T03:37:47;8.63;;;6.03;;
20014;SDS011;61787;42.022;23.078;2023-04-15T03:38:49;7.80;;;5.57;;
20014;SDS011;61787;42.022;23.078;2023-04-15T03:39:51;7.67;;;5.83;;
20014;SDS011;61787;42.022;23.078;2023-04-15T03:40:52;8.73;;;6.47;;
20014;SDS011;61787;42.022;23.078;2023-04-15T03:41:54;10.33;;;5.70;;
20014;SDS011;61787;42.022;23.078;2023-04-15T03:42:56;9.80;;;5.23;;
20014;SDS011;61787;42.022;23.078;2023-04-15T03:43:58;6.90;;;5.23;;
20014;SDS011;61787;42.022;23.078;2023-04-15T03:45:00;6.70;;;5.07;;
20014;SDS011;61787;42.022;23.078;2023-04-15T03:46:01;10.33;;;5.63;;
20014;SDS011;61787;42.022;23.078;2023-04-15T03:47:03;10.93;;;5.20;;
20014;SDS011;61787;42.022;23.078;2023-04-15T03:48:05;6.47;;;5.50;;
20014;SDS011;61787;42.022;23.078;2023-04-15T03:49:18;6.77;;;5.37;;
20014;SDS011;61787;42.022;23.078;2023-04-15T03:50:20;7.13;;;5.40;;
20014;SDS011;61787;42.022;23.078;2023-04-15T03:51:22;7.17;;;5.13;;
20014;SDS011;61787;42.022;23.078;2023-04-15T03:52:23;6.60;;;5.03;;
20014;SDS011;61787;42.022;23.078;2023-04-15T03:53:25;9.20;;;5.60;;
20014;SDS011;61787;42.022;23.078;2023-04-15T03:54:26;8.97;;;5.63;;
20014;SDS011;61787;42.022;23.078;2023-04-15T03:55:28;7.33;;;5.40;;
20014;SDS011;61787;42.022;23.078;2023-04-15T03:56:29;9.97;;;6.57;;
20014;SDS011;61787;42.022;23.078;2023-04-15T03:57:31;9.73;;;6.30;;
20014;SDS011;61787;42.022;23.078;2023-04-15T03:58:38;9.87;;;6.67;;
20014;SDS011;61787;42.022;23.078;2023-04-15T03:59:39;38.47;;;9.50;;
20014;SDS011;61787;42.022;23.078;2023-04-15T04:00:41;133.67;;;13.23;;
20014;SDS011;61787;42.022;23.078;2023-04-15T04:01:42;15.37;;;8.17;;
20014;SDS011;61787;42.022;23.078;2023-04-15T04:02:44;113.27;;;14.00;;
20014;SDS011;61787;42.022;23.078;2023-04-15T04:03:46;34.90;;;8.73;;
20014;SDS011;61787;42.022;23.078;2023-04-15T04:04:48;24.67;;;9.23;;
20014;SDS011;61787;42.022;23.078;2023-04-15T04:05:50;222.70;;;18.43;;
20014;SDS011;61787;42.022;23.078;2023-04-15T04:06:51;120.03;;;13.90;;
20014;SDS011;61787;42.022;23.078;2023-04-15T04:07:53;60.07;;;9.73;;
20014;SDS011;61787;42.022;23.078;2023-04-15T04:08:55;149.73;;;14.73;;
20014;SDS011;61787;42.022;23.078;2023-04-15T04:09:56;28.43;;;8.57;;
20014;SDS011;61787;42.022;23.078;2023-04-15T04:10:58;134.30;;;12.90;;
20014;SDS011;61787;42.022;23.078;2023-04-15T04:12:00;118.90;;;11.77;;
20014;SDS011;61787;42.022;23.078;2023-04-15T04:13:02;206.87;;;15.63;;
20014;SDS011;61787;42.022;23.078;2023-04-15T04:14:04;129.63;;;11.47;;
20014;SDS011;61787;42.022;23.078;2023-04-15T04:15:05;154.97;;;12.23;;
20014;SDS011;61787;42.022;23.078;2023-04-15T04:16:08;164.23;;;13.23;;
20014;SDS011;61787;42.022;23.078;2023-04-15T04:17:09;174.07;;;13.07;;
20014;SDS011;61787;42.022;23.078;2023-04-15T04:18:12;188.40;;;13.20;;
20014;SDS011;61787;42.022;23.078;2023-04-15T04:19:13;175.17;;;11.87;;
20014;SDS011;61787;42.022;23.078;2023-04-15T04:20:15;147.07;;;11.60;;
20014;SDS011;61787;42.022;23.078;2023-04-15T04:21:16;137.60;;;10.50;;
20014;SDS011;61787;42.022;23.078;2023-04-15T04:22:21;154.23;;;11.77;;
20014;SDS011;61787;42.022;23.078;2023-04-15T04:23:24;226.60;;;15.60;;
20014;SDS011;61787;42.022;23.078;2023-04-15T04:24:25;175.07;;;12.93;;
20014;SDS011;61787;42.022;23.078;2023-04-15T04:25:27;190.53;;;13.20;;
20014;SDS011;61787;42.022;23.078;2023-04-15T04:26:29;164.10;;;12.40;;
20014;SDS011;61787;42.022;23.078;2023-04-15T04:27:30;157.47;;;12.97;;
20014;SDS011;61787;42.022;23.078;2023-04-15T04:28:32;174.53;;;14.83;;
20014;SDS011;61787;42.022;23.078;2023-04-15T04:29:33;168.17;;;13.90;;
20014;SDS011;61787;42.022;23.078;2023-04-15T04:30:35;143.73;;;13.97;;
20014;SDS011;61787;42.022;23.078;2023-04-15T04:31:36;146.07;;;14.23;;
20014;SDS011;61787;42.022;23.078;2023-04-15T04:32:38;121.17;;;14.23;;
20014;SDS011;61787;42.022;23.078;2023-04-15T04:33:40;133.13;;;14.23;;
20014;SDS011;61787;42.022;23.078;2023-04-15T04:34:42;74.20;;;11.03;;
20014;SDS011;61787;42.022;23.078;2023-04-15T04:35:43;140.90;;;13.97;;
20014;SDS011;61787;42.022;23.078;2023-04-15T04:36:45;150.77;;;15.87;;
20014;SDS011;61787;42.022;23.078;2023-04-15T04:37:46;128.80;;;14.57;;
20014;SDS011;61787;42.022;23.078;2023-04-15T04:38:48;171.20;;;17.57;;
20014;SDS011;61787;42.022;23.078;2023-04-15T04:39:49;124.50;;;16.30;;
20014;SDS011;61787;42.022;23.078;2023-04-15T04:40:51;122.70;;;16.10;;
20014;SDS011;61787;42.022;23.078;2023-04-15T04:41:53;67.70;;;13.60;;
20014;SDS011;61787;42.022;23.078;2023-04-15T04:42:54;75.43;;;13.53;;
20014;SDS011;61787;42.022;23.078;2023-04-15T04:43:56;59.30;;;13.17;;
20014;SDS011;61787;42.022;23.078;2023-04-15T04:44:57;54.33;;;13.00;;
20014;SDS011;61787;42.022;23.078;2023-04-15T04:45:59;48.77;;;12.10;;
20014;SDS011;61787;42.022;23.078;2023-04-15T04:47:00;40.90;;;11.60;;
20014;SDS011;61787;42.022;23.078;2023-04-15T04:48:02;35.80;;;10.37;;
20014;SDS011;61787;42.022;23.078;2023-04-15T04:49:07;20.43;;;9.83;;
20014;SDS011;61787;42.022;23.078;2023-04-15T04:50:09;14.47;;;9.93;;
20014;SDS011;61787;42.022;23.078;2023-04-15T04:51:10;11.80;;;8.97;;
20014;SDS011;61787;42.022;23.078;2023-04-15T04:52:12;12.97;;;9.17;;
20014;SDS011;61787;42.022;23.078;2023-04-15T04:53:13;12.53;;;9.20;;
20014;SDS011;61787;42.022;23.078;2023-04-15T04:54:15;10.97;;;8.77;;
20014;SDS011;61787;42.022;23.078;2023-04-15T04:55:17;10.67;;;8.30;;
20014;SDS011;61787;42.022;23.078;2023-04-15T04:56:19;11.10;;;7.90;;
20014;SDS011;61787;42.022;23.078;2023-04-15T04:57:21;11.60;;;8.17;;
20014;SDS011;61787;42.022;23.078;2023-04-15T04:58:23;12.50;;;7.77;;
20014;SDS011;61787;42.022;23.078;2023-04-15T04:59:24;9.83;;;7.67;;
20014;SDS011;61787;42.022;23.078;2023-04-15T05:00:26;9.50;;;7.63;;
20014;SDS011;61787;42.022;23.078;2023-04-15T05:01:28;9.20;;;7.63;;
20014;SDS011;61787;42.022;23.078;2023-04-15T05:02:30;11.40;;;8.10;;
20014;SDS011;61787;42.022;23.078;2023-04-15T05:03:32;9.53;;;7.93;;
20014;SDS011;61787;42.022;23.078;2023-04-15T05:04:35;8.67;;;7.60;;
20014;SDS011;61787;42.022;23.078;2023-04-15T05:05:37;8.77;;;7.40;;
20014;SDS011;61787;42.022;23.078;2023-04-15T05:06:41;9.13;;;7.70;;
20014;SDS011;61787;42.022;23.078;2023-04-15T05:07:42;9.33;;;7.63;;
20014;SDS011;61787;42.022;23.078;2023-04-15T05:08:45;9.17;;;7.43;;
20014;SDS011;61787;42.022;23.078;2023-04-15T05:09:47;8.77;;;7.37;;
20014;SDS011;61787;42.022;23.078;2023-04-15T05:10:48;10.43;;;7.37;;
20014;SDS011;61787;42.022;23.078;2023-04-15T05:11:50;9.83;;;6.50;;
20014;SDS011;61787;42.022;23.078;2023-04-15T05:12:52;7.37;;;6.50;;
20014;SDS011;61787;42.022;23.078;2023-04-15T05:13:53;8.33;;;5.93;;
20014;SDS011;61787;42.022;23.078;2023-04-15T05:14:55;9.03;;;5.60;;
20014;SDS011;61787;42.022;23.078;2023-04-15T05:15:57;6.77;;;5.53;;
20014;SDS011;61787;42.022;23.078;2023-04-15T05:16:58;7.10;;;5.83;;
20014;SDS011;61787;42.022;23.078;2023-04-15T05:18:00;7.40;;;5.13;;
20014;SDS011;61787;42.022;23.078;2023-04-15T05:19:02;8.10;;;5.53;;
20014;SDS011;61787;42.022;23.078;2023-04-15T05:20:03;7.10;;;5.67;;
20014;SDS011;61787;42.022;23.078;2023-04-15T05:21:05;6.80;;;5.50;;
20014;SDS011;61787;42.022;23.078;2023-04-15T05:22:07;7.53;;;5.37;;
20014;SDS011;61787;42.022;23.078;2023-04-15T05:23:09;5.07;;;4.57;;
20014;SDS011;61787;42.022;23.078;2023-04-15T05:24:11;6.37;;;5.60;;
20014;SDS011;61787;42.022;23.078;2023-04-15T05:25:12;9.03;;;5.40;;
20014;SDS011;61787;42.022;23.078;2023-04-15T05:26:14;7.50;;;5.60;;
20014;SDS011;61787;42.022;23.078;2023-04-15T05:27:15;6.67;;;5.40;;
20014;SDS011;61787;42.022;23.078;2023-04-15T05:28:17;7.37;;;5.63;;
20014;SDS011;61787;42.022;23.078;2023-04-15T05:29:19;6.03;;;5.43;;
20014;SDS011;61787;42.022;23.078;2023-04-15T05:30:21;6.33;;;5.70;;
20014;SDS011;61787;42.022;23.078;2023-04-15T05:31:22;8.33;;;6.53;;
20014;SDS011;61787;42.022;23.078;2023-04-15T05:32:24;15.33;;;6.90;;
20014;SDS011;61787;42.022;23.078;2023-04-15T05:33:25;14.27;;;7.20;;
20014;SDS011;61787;42.022;23.078;2023-04-15T05:34:27;27.47;;;7.70;;
20014;SDS011;61787;42.022;23.078;2023-04-15T05:35:29;47.63;;;8.63;;
20014;SDS011;61787;42.022;23.078;2023-04-15T05:36:30;36.50;;;8.33;;
20014;SDS011;61787;42.022;23.078;2023-04-15T05:37:32;36.63;;;8.57;;
20014;SDS011;61787;42.022;23.078;2023-04-15T05:38:34;12.17;;;7.63;;
20014;SDS011;61787;42.022;23.078;2023-04-15T05:39:36;10.90;;;7.40;;
20014;SDS011;61787;42.022;23.078;2023-04-15T05:40:37;24.23;;;7.73;;
20014;SDS011;61787;42.022;23.078;2023-04-15T05:41:39;15.90;;;7.57;;
20014;SDS011;61787;42.022;23.078;2023-04-15T05:42:40;30.77;;;7.80;;
20014;SDS011;61787;42.022;23.078;2023-04-15T05:43:42;28.43;;;7.03;;
20014;SDS011;61787;42.022;23.078;2023-04-15T05:44:43;14.87;;;6.40;;
20014;SDS011;61787;42.022;23.078;2023-04-15T05:45:45;42.00;;;7.97;;
20014;SDS011;61787;42.022;23.078;2023-04-15T05:46:47;39.67;;;7.97;;
20014;SDS011;61787;42.022;23.078;2023-04-15T05:47:48;15.37;;;7.10;;
20014;SDS011;61787;42.022;23.078;2023-04-15T05:48:51;57.03;;;10.30;;
20014;SDS011;61787;42.022;23.078;2023-04-15T05:49:55;18.27;;;7.63;;
20014;SDS011;61787;42.022;23.078;2023-04-15T05:50:59;53.47;;;8.83;;
20014;SDS011;61787;42.022;23.078;2023-04-15T05:52:01;18.53;;;7.13;;
20014;SDS011;61787;42.022;23.078;2023-04-15T05:53:03;9.47;;;7.53;;
20014;SDS011;61787;42.022;23.078;2023-04-15T05:54:05;9.73;;;7.77;;
20014;SDS011;61787;42.022;23.078;2023-04-15T05:55:07;10.07;;;8.13;;
20014;SDS011;61787;42.022;23.078;2023-04-15T05:56:09;10.20;;;7.33;;
20014;SDS011;61787;42.022;23.078;2023-04-15T05:57:10;12.93;;;7.33;;
20014;SDS011;61787;42.022;23.078;2023-04-15T05:58:12;11.30;;;7.17;;
20014;SDS011;61787;42.022;23.078;2023-04-15T05:59:13;9.13;;;7.00;;
20014;SDS011;61787;42.022;23.078;2023-04-15T06:00:15;9.20;;;6.87;;
20014;SDS011;61787;42.022;23.078;2023-04-15T06:01:17;8.93;;;6.53;;
20014;SDS011;61787;42.022;23.078;2023-04-15T06:02:18;8.13;;;6.93;;
20014;SDS011;61787;42.022;23.078;2023-04-15T06:03:21;10.43;;;6.90;;
20014;SDS011;61787;42.022;23.078;2023-04-15T06:04:23;9.10;;;7.17;;
20014;SDS011;61787;42.022;23.078;2023-04-15T06:05:25;8.20;;;7.07;;